Knightsen, CA (94548)

1:06 PM PDT on July 27, 2016 (GMT -0700)
N6ML - North Brentwood | | Change Station

Elev 66 ft 37.96 °N, 121.70 °W | Updated 1 second ago

Clear
Clear
98.8 °F
Feels Like 98 °F
N
7.0
Wind Variable Wind from NNW
Gusts 14.0 mph

Today
High -- | Low -- °F
--% Chance of Precip.
Yesterday
High -- | Low -- °F
Precip. -- in
Pressure 29.85 in
Visibility 10.0 miles
Clouds Clear
Heat Index 98 °F
Dew Point 57 °F
Humidity 25%
Rainfall 0.00 in
Snow Depth Not available.
6:06 AM 8:19 PM
Last Quarter, 40% visible
METAR KLVK 271953Z 28008KT 10SM CLR 38/04 A2986 RMK AO2 SLP108 T03780044
Pressure 29.85 in
Visibility 10.0 miles
Clouds Clear
Heat Index 98 °F
Dew Point 57 °F
Humidity 25%
Rainfall 0.00 in
Snow Depth Not available.
6:06 AM 8:19 PM
Last Quarter, 40% visible
METAR KLVK 271953Z 28008KT 10SM CLR 38/04 A2986 RMK AO2 SLP108 T03780044

10-Day Weather Forecast

Almanac

Astronomy

Jul. 27, 2016 Rise Set
Actual Time
Civil Twilight
Nautical Twilight
Astronomical Twilight
Moon
Length of Visible Light
Length of Day
Tomorrow will be .
, % of the Moon is Illuminated

Today's Extremes

State Highs State Lows

Community

WunderPhotos

Upload Photos

1,927,931 photos uploaded!

WunderBlog® & News

Nearby

Air Quality

  Air Quality AQ Index Pollutant
Not available.

Snow Depth

Station Depth Elevation

Earthquake Activity

City Distance Mag. Time & Date
Minimum magnitude displayed is 2.5.

Coastal Water Temperatures

Place Temperature

Stations

Nearby Weather Stations

Station Location Temp. Windchill Dew Point Humidity Wind Precip. Elev Updated Type
                   

Watches & Warnings

There are currently no watches in effect.